PBD6521 UWKS-UUEE
Flight info
| Callsign | PBD6521 |
|---|---|
| Flight time | N/A |
| Altitude | 34000 |
| Route | IRGOS1D IRGOS L158 DIMGI DIMGI3W |
| Aircraft | B737/M-SDE2E3FGHIRWXY/LB1 |
Departure
| Time | 2026-04-27 19:21 |
|---|---|
| Airport | Cheboksary Airport (UWKS) |
Arrival
| Time | N/A |
|---|---|
| Airport | Sheremetyevo International Airport (UUEE) |
| Time | Latitude | Longitude | Altitude | Speed | Heading |
|---|---|---|---|---|---|
| 2026-04-27 18:36 | 56.08345 | 47.31956 | 571 ft | 0 kts | 172° |
| 2026-04-27 19:12 | 56.08340 | 47.31958 | 569 ft | 2 kts | 165° |
| 2026-04-27 19:12 | 56.08331 | 47.31978 | 567 ft | 2 kts | 105° |
| 2026-04-27 19:12 | 56.08339 | 47.32006 | 567 ft | 3 kts | 53° |
| 2026-04-27 19:13 | 56.08355 | 47.32035 | 569 ft | 4 kts | 48° |
| 2026-04-27 19:13 | 56.08367 | 47.32079 | 566 ft | 5 kts | 73° |
| 2026-04-27 19:13 | 56.08370 | 47.32146 | 563 ft | 6 kts | 84° |
| 2026-04-27 19:13 | 56.08395 | 47.32220 | 563 ft | 8 kts | 41° |
| 2026-04-27 19:14 | 56.08433 | 47.32297 | 572 ft | 9 kts | 54° |
| 2026-04-27 19:14 | 56.08474 | 47.32400 | 570 ft | 11 kts | 54° |
| 2026-04-27 19:14 | 56.08525 | 47.32527 | 568 ft | 14 kts | 54° |
| 2026-04-27 19:14 | 56.08584 | 47.32676 | 569 ft | 15 kts | 54° |
| 2026-04-27 19:15 | 56.08642 | 47.32820 | 569 ft | 13 kts | 53° |
| 2026-04-27 19:15 | 56.08698 | 47.32954 | 565 ft | 14 kts | 57° |
| 2026-04-27 19:15 | 56.08733 | 47.33116 | 568 ft | 15 kts | 71° |
| 2026-04-27 19:15 | 56.08767 | 47.33302 | 572 ft | 16 kts | 71° |
| 2026-04-27 19:16 | 56.08804 | 47.33498 | 569 ft | 17 kts | 71° |
| 2026-04-27 19:16 | 56.08831 | 47.33642 | 569 ft | 19 kts | 71° |
| 2026-04-27 19:16 | 56.08894 | 47.33972 | 567 ft | 23 kts | 73° |
| 2026-04-27 19:16 | 56.08941 | 47.34244 | 571 ft | 24 kts | 72° |
| 2026-04-27 19:17 | 56.08995 | 47.34544 | 570 ft | 26 kts | 72° |
| 2026-04-27 19:17 | 56.09053 | 47.34862 | 570 ft | 27 kts | 72° |
| 2026-04-27 19:17 | 56.09111 | 47.35187 | 565 ft | 29 kts | 71° |
| 2026-04-27 19:17 | 56.09175 | 47.35527 | 564 ft | 29 kts | 72° |
| 2026-04-27 19:18 | 56.09238 | 47.35870 | 567 ft | 30 kts | 71° |
| 2026-04-27 19:18 | 56.09306 | 47.36238 | 566 ft | 31 kts | 72° |
| 2026-04-27 19:18 | 56.09342 | 47.36511 | 545 ft | 15 kts | 99° |
| 2026-04-27 19:18 | 56.09378 | 47.36640 | 532 ft | 8 kts | 2° |
| 2026-04-27 19:19 | 56.09423 | 47.36595 | 535 ft | 7 kts | 306° |
| 2026-04-27 19:19 | 56.09427 | 47.36508 | 541 ft | 7 kts | 246° |
| 2026-04-27 19:19 | 56.09387 | 47.36468 | 546 ft | 7 kts | 191° |
| 2026-04-27 19:19 | 56.09346 | 47.36427 | 560 ft | 7 kts | 230° |
| 2026-04-27 19:20 | 56.09334 | 47.36381 | 558 ft | 0 kts | 250° |
| 2026-04-27 19:20 | 56.09334 | 47.36379 | 558 ft | 3 kts | 250° |
| 2026-04-27 19:21 | 56.09243 | 47.35899 | 562 ft | 81 kts | 252° |
| 2026-04-27 19:21 | 56.09000 | 47.34528 | 584 ft | 145 kts | 253° |
| 2026-04-27 19:21 | 56.08732 | 47.32853 | 1365 ft | 135 kts | 250° |
| 2026-04-27 19:21 | 56.08401 | 47.31221 | 2083 ft | 141 kts | 234° |
| 2026-04-27 19:22 | 56.07822 | 47.29682 | 2654 ft | 161 kts | 229° |
| 2026-04-27 19:22 | 56.07131 | 47.27895 | 2904 ft | 187 kts | 233° |
| 2026-04-27 19:22 | 56.06414 | 47.25829 | 3285 ft | 201 kts | 234° |
| 2026-04-27 19:22 | 56.05685 | 47.23667 | 3901 ft | 204 kts | 236° |
| 2026-04-27 19:23 | 56.04969 | 47.21533 | 4549 ft | 204 kts | 237° |
| 2026-04-27 19:23 | 56.04230 | 47.19334 | 5181 ft | 207 kts | 237° |
| 2026-04-27 19:23 | 56.03481 | 47.17107 | 5743 ft | 211 kts | 237° |
| 2026-04-27 19:23 | 56.02724 | 47.14862 | 6311 ft | 214 kts | 237° |
| 2026-04-27 19:24 | 56.01945 | 47.12554 | 6886 ft | 217 kts | 237° |
| 2026-04-27 19:24 | 56.01158 | 47.10228 | 7442 ft | 221 kts | 237° |
| 2026-04-27 19:24 | 56.00346 | 47.07834 | 7839 ft | 235 kts | 237° |
| 2026-04-27 19:24 | 55.99472 | 47.05263 | 8361 ft | 247 kts | 237° |
| 2026-04-27 19:25 | 55.98573 | 47.02619 | 9205 ft | 250 kts | 237° |
| 2026-04-27 19:25 | 55.97667 | 46.99954 | 9902 ft | 258 kts | 237° |
| 2026-04-27 19:25 | 55.96679 | 46.97062 | 10086 ft | 283 kts | 237° |
| 2026-04-27 19:25 | 55.95627 | 46.93984 | 10510 ft | 297 kts | 237° |
| 2026-04-27 19:26 | 55.94542 | 46.90809 | 11189 ft | 303 kts | 237° |
| 2026-04-27 19:26 | 55.93435 | 46.87569 | 11948 ft | 307 kts | 237° |
| 2026-04-27 19:26 | 55.92328 | 46.84334 | 12658 ft | 312 kts | 236° |
| 2026-04-27 19:26 | 55.91174 | 46.80967 | 13385 ft | 317 kts | 236° |
| 2026-04-27 19:27 | 55.90031 | 46.77637 | 14017 ft | 322 kts | 236° |
| 2026-04-27 19:27 | 55.88853 | 46.74213 | 14713 ft | 324 kts | 237° |
| 2026-04-27 19:27 | 55.87667 | 46.70770 | 15388 ft | 328 kts | 237° |
| 2026-04-27 19:27 | 55.86470 | 46.67298 | 16049 ft | 332 kts | 237° |
| 2026-04-27 19:28 | 55.85252 | 46.63771 | 16724 ft | 336 kts | 237° |
| 2026-04-27 19:28 | 55.84013 | 46.60184 | 17398 ft | 339 kts | 237° |
| 2026-04-27 19:28 | 55.82770 | 46.56597 | 18023 ft | 343 kts | 237° |
| 2026-04-27 19:28 | 55.81513 | 46.52979 | 18595 ft | 346 kts | 237° |
| 2026-04-27 19:29 | 55.80431 | 46.49137 | 19141 ft | 352 kts | 252° |
| 2026-04-27 19:29 | 55.79898 | 46.44865 | 19775 ft | 354 kts | 258° |
| 2026-04-27 19:29 | 55.79569 | 46.40508 | 20350 ft | 358 kts | 264° |
| 2026-04-27 19:29 | 55.79511 | 46.36075 | 20908 ft | 362 kts | 269° |
| 2026-04-27 19:30 | 55.79642 | 46.31589 | 21471 ft | 365 kts | 272° |
| 2026-04-27 19:30 | 55.79854 | 46.27119 | 22024 ft | 368 kts | 273° |
| 2026-04-27 19:30 | 55.80081 | 46.22504 | 22582 ft | 370 kts | 273° |
| 2026-04-27 19:30 | 55.80287 | 46.17940 | 23115 ft | 373 kts | 273° |
| 2026-04-27 19:31 | 55.80470 | 46.13390 | 23520 ft | 376 kts | 272° |
| 2026-04-27 19:31 | 55.80640 | 46.08655 | 23890 ft | 380 kts | 272° |
| 2026-04-27 19:31 | 55.80794 | 46.04014 | 24255 ft | 383 kts | 271° |
| 2026-04-27 19:31 | 55.80942 | 45.99269 | 24631 ft | 387 kts | 271° |
| 2026-04-27 19:32 | 55.81087 | 45.94473 | 25005 ft | 390 kts | 271° |
| 2026-04-27 19:32 | 55.81230 | 45.89616 | 25349 ft | 394 kts | 271° |
| 2026-04-27 19:32 | 55.81372 | 45.84721 | 25693 ft | 398 kts | 270° |
| 2026-04-27 19:32 | 55.81513 | 45.79806 | 26033 ft | 401 kts | 270° |
| 2026-04-27 19:33 | 55.81654 | 45.74804 | 26381 ft | 404 kts | 270° |
| 2026-04-27 19:33 | 55.81746 | 45.71525 | 26602 ft | 407 kts | 270° |
| 2026-04-27 19:33 | 55.81931 | 45.64831 | 27024 ft | 411 kts | 270° |
| 2026-04-27 19:33 | 55.82071 | 45.59657 | 27346 ft | 414 kts | 270° |
| 2026-04-27 19:34 | 55.82206 | 45.54604 | 27655 ft | 417 kts | 270° |
| 2026-04-27 19:34 | 55.82345 | 45.49310 | 28006 ft | 420 kts | 270° |
| 2026-04-27 19:34 | 55.82480 | 45.44128 | 28457 ft | 419 kts | 270° |
| 2026-04-27 19:34 | 55.82612 | 45.38973 | 28929 ft | 419 kts | 269° |
| 2026-04-27 19:35 | 55.82740 | 45.33852 | 29313 ft | 420 kts | 269° |
| 2026-04-27 19:35 | 55.82870 | 45.28585 | 29655 ft | 421 kts | 269° |
| 2026-04-27 19:35 | 55.82996 | 45.23380 | 29983 ft | 421 kts | 269° |
| 2026-04-27 19:35 | 55.83118 | 45.18258 | 30345 ft | 420 kts | 269° |
| 2026-04-27 19:36 | 55.83239 | 45.13063 | 30685 ft | 419 kts | 269° |
| 2026-04-27 19:36 | 55.83359 | 45.07892 | 30976 ft | 420 kts | 269° |
| 2026-04-27 19:36 | 55.83477 | 45.02689 | 31268 ft | 421 kts | 269° |
| 2026-04-27 19:36 | 55.83592 | 44.97473 | 31590 ft | 420 kts | 269° |
| 2026-04-27 19:37 | 55.83706 | 44.92290 | 31922 ft | 420 kts | 269° |
| 2026-04-27 19:37 | 55.83819 | 44.87089 | 32207 ft | 420 kts | 269° |
| 2026-04-27 19:37 | 55.83929 | 44.81896 | 32483 ft | 421 kts | 269° |
| 2026-04-27 19:37 | 55.84039 | 44.76694 | 32799 ft | 420 kts | 269° |
| 2026-04-27 19:38 | 55.84146 | 44.71565 | 33110 ft | 420 kts | 269° |
| 2026-04-27 19:38 | 55.84252 | 44.66302 | 33359 ft | 420 kts | 269° |
| 2026-04-27 19:38 | 55.84355 | 44.61090 | 33396 ft | 425 kts | 269° |
| 2026-04-27 19:39 | 55.84556 | 44.50556 | 33398 ft | 425 kts | 269° |
| 2026-04-27 19:39 | 55.84747 | 44.40232 | 33438 ft | 419 kts | 269° |
| 2026-04-27 19:40 | 55.84929 | 44.29867 | 33402 ft | 418 kts | 269° |
| 2026-04-27 19:40 | 55.85103 | 44.19494 | 33382 ft | 418 kts | 269° |
| 2026-04-27 19:41 | 55.85265 | 44.09161 | 33385 ft | 417 kts | 269° |
| 2026-04-27 19:41 | 55.85420 | 43.98892 | 33373 ft | 416 kts | 269° |
| 2026-04-27 19:42 | 55.85565 | 43.88619 | 33373 ft | 416 kts | 269° |
| 2026-04-27 19:42 | 55.85703 | 43.78243 | 33371 ft | 416 kts | 268° |
| 2026-04-27 19:43 | 55.85810 | 43.69683 | 33370 ft | 417 kts | 268° |
| 2026-04-27 19:43 | 55.85954 | 43.57685 | 33364 ft | 417 kts | 268° |
| 2026-04-27 19:44 | 55.86066 | 43.47331 | 33353 ft | 418 kts | 268° |
| 2026-04-27 19:44 | 55.86156 | 43.38704 | 33348 ft | 419 kts | 268° |
| 2026-04-27 19:45 | 55.86259 | 43.28327 | 33339 ft | 419 kts | 268° |
| 2026-04-27 19:45 | 55.86353 | 43.17943 | 33348 ft | 419 kts | 268° |
| 2026-04-27 19:46 | 55.86438 | 43.07552 | 33333 ft | 420 kts | 268° |
| 2026-04-27 19:46 | 55.86516 | 42.97160 | 33330 ft | 420 kts | 268° |
| 2026-04-27 19:47 | 55.86584 | 42.86820 | 33324 ft | 420 kts | 268° |
| 2026-04-27 19:47 | 55.86645 | 42.76436 | 33324 ft | 419 kts | 268° |
| 2026-04-27 19:48 | 55.86696 | 42.66047 | 33313 ft | 419 kts | 268° |
| 2026-04-27 19:48 | 55.86737 | 42.55699 | 33310 ft | 418 kts | 268° |
| 2026-04-27 19:49 | 55.86769 | 42.45365 | 33311 ft | 417 kts | 268° |
| 2026-04-27 19:49 | 55.86796 | 42.35037 | 33306 ft | 416 kts | 268° |
| 2026-04-27 19:50 | 55.86812 | 42.24805 | 33301 ft | 415 kts | 268° |
| 2026-04-27 19:50 | 55.86818 | 42.14534 | 33296 ft | 415 kts | 268° |
| 2026-04-27 19:51 | 55.86817 | 42.04241 | 33297 ft | 415 kts | 268° |
| 2026-04-27 19:51 | 55.86807 | 41.93949 | 33290 ft | 415 kts | 268° |
| 2026-04-27 19:52 | 55.86791 | 41.83674 | 33288 ft | 415 kts | 268° |
| 2026-04-27 19:52 | 55.86720 | 41.73493 | 33284 ft | 415 kts | 266° |
| 2026-04-27 19:53 | 55.86220 | 41.58085 | 33283 ft | 415 kts | 264° |
| 2026-04-27 19:53 | 55.85869 | 41.47828 | 33285 ft | 415 kts | 265° |
| 2026-04-27 19:54 | 55.85538 | 41.37596 | 33283 ft | 416 kts | 265° |
| 2026-04-27 19:54 | 55.85206 | 41.27280 | 33283 ft | 416 kts | 265° |
| 2026-04-27 19:55 | 55.84870 | 41.17093 | 33282 ft | 416 kts | 265° |
| 2026-04-27 19:55 | 55.84520 | 41.06798 | 33280 ft | 416 kts | 265° |
| 2026-04-27 19:56 | 55.84162 | 40.96503 | 33287 ft | 416 kts | 265° |
| 2026-04-27 19:56 | 55.83797 | 40.86275 | 33282 ft | 415 kts | 265° |
| 2026-04-27 19:57 | 55.83424 | 40.76013 | 33269 ft | 415 kts | 265° |
| 2026-04-27 19:57 | 55.83234 | 40.70862 | 32969 ft | 416 kts | 265° |
| 2026-04-27 19:57 | 55.83044 | 40.65807 | 32721 ft | 413 kts | 265° |
| 2026-04-27 19:58 | 55.82849 | 40.60676 | 32455 ft | 410 kts | 265° |
| 2026-04-27 19:58 | 55.82651 | 40.55655 | 32208 ft | 410 kts | 265° |
| 2026-04-27 19:58 | 55.82446 | 40.50595 | 31948 ft | 410 kts | 265° |
| 2026-04-27 19:58 | 55.82239 | 40.45550 | 31430 ft | 409 kts | 265° |
| 2026-04-27 19:59 | 55.82032 | 40.40524 | 30998 ft | 406 kts | 265° |
| 2026-04-27 19:59 | 55.81824 | 40.35520 | 30551 ft | 404 kts | 265° |
| 2026-04-27 19:59 | 55.81617 | 40.30579 | 30108 ft | 402 kts | 265° |
| 2026-04-27 19:59 | 55.81407 | 40.25603 | 29651 ft | 401 kts | 266° |
| 2026-04-27 20:00 | 55.81198 | 40.20693 | 29177 ft | 399 kts | 266° |
| 2026-04-27 20:00 | 55.80988 | 40.15801 | 28635 ft | 396 kts | 266° |
| 2026-04-27 20:00 | 55.80778 | 40.10952 | 28174 ft | 392 kts | 266° |
| 2026-04-27 20:00 | 55.80568 | 40.06148 | 27695 ft | 387 kts | 266° |
| 2026-04-27 20:01 | 55.80360 | 40.01424 | 27248 ft | 379 kts | 266° |
| 2026-04-27 20:01 | 55.80155 | 39.96826 | 26811 ft | 371 kts | 266° |
| 2026-04-27 20:01 | 55.79953 | 39.92302 | 26357 ft | 363 kts | 266° |
| 2026-04-27 20:01 | 55.79754 | 39.87884 | 25907 ft | 356 kts | 266° |
| 2026-04-27 20:02 | 55.79555 | 39.83543 | 25469 ft | 349 kts | 266° |
| 2026-04-27 20:02 | 55.79346 | 39.79220 | 25318 ft | 347 kts | 265° |
| 2026-04-27 20:02 | 55.79081 | 39.74928 | 25061 ft | 354 kts | 264° |
| 2026-04-27 20:02 | 55.78791 | 39.70699 | 24802 ft | 347 kts | 264° |
| 2026-04-27 20:03 | 55.78494 | 39.66477 | 24558 ft | 340 kts | 264° |
| 2026-04-27 20:03 | 55.78206 | 39.62311 | 24360 ft | 339 kts | 265° |
| 2026-04-27 20:03 | 55.77924 | 39.58182 | 24170 ft | 341 kts | 265° |
| 2026-04-27 20:03 | 55.77638 | 39.53963 | 23965 ft | 342 kts | 265° |
| 2026-04-27 20:04 | 55.77357 | 39.49800 | 23760 ft | 341 kts | 265° |
| 2026-04-27 20:04 | 55.77071 | 39.45589 | 23555 ft | 340 kts | 265° |
| 2026-04-27 20:04 | 55.76787 | 39.41450 | 23359 ft | 339 kts | 266° |
| 2026-04-27 20:04 | 55.76503 | 39.37349 | 23242 ft | 334 kts | 266° |
| 2026-04-27 20:05 | 55.76214 | 39.33223 | 23142 ft | 329 kts | 266° |
| 2026-04-27 20:05 | 55.75933 | 39.29232 | 23052 ft | 326 kts | 266° |
| 2026-04-27 20:05 | 55.75653 | 39.25240 | 22983 ft | 331 kts | 266° |
| 2026-04-27 20:05 | 55.75360 | 39.21075 | 22903 ft | 335 kts | 266° |
| 2026-04-27 20:06 | 55.75075 | 39.17053 | 22779 ft | 334 kts | 266° |
| 2026-04-27 20:06 | 55.74782 | 39.12963 | 22483 ft | 333 kts | 266° |
| 2026-04-27 20:06 | 55.74489 | 39.08878 | 22133 ft | 330 kts | 267° |
| 2026-04-27 20:06 | 55.74199 | 39.04846 | 21797 ft | 328 kts | 267° |
| 2026-04-27 20:07 | 55.73912 | 39.00866 | 21442 ft | 326 kts | 267° |
| 2026-04-27 20:07 | 55.73621 | 38.96881 | 21119 ft | 324 kts | 267° |
| 2026-04-27 20:07 | 55.73357 | 38.92966 | 20796 ft | 321 kts | 271° |
| 2026-04-27 20:07 | 55.73334 | 38.89054 | 20466 ft | 314 kts | 278° |
| 2026-04-27 20:08 | 55.73541 | 38.85234 | 20130 ft | 303 kts | 281° |
| 2026-04-27 20:08 | 55.73805 | 38.81586 | 19808 ft | 293 kts | 282° |
| 2026-04-27 20:08 | 55.74049 | 38.78018 | 19477 ft | 285 kts | 281° |
| 2026-04-27 20:08 | 55.74260 | 38.74567 | 19359 ft | 289 kts | 281° |
| 2026-04-27 20:09 | 55.74463 | 38.70951 | 19341 ft | 302 kts | 280° |
| 2026-04-27 20:09 | 55.74657 | 38.67143 | 19323 ft | 311 kts | 279° |
| 2026-04-27 20:09 | 55.74842 | 38.63327 | 19328 ft | 312 kts | 279° |
| 2026-04-27 20:09 | 55.75032 | 38.59494 | 19304 ft | 306 kts | 282° |
| 2026-04-27 20:10 | 55.75623 | 38.55967 | 19332 ft | 299 kts | 299° |
| 2026-04-27 20:10 | 55.76704 | 38.52800 | 19342 ft | 303 kts | 307° |
| 2026-04-27 20:10 | 55.77960 | 38.49740 | 19335 ft | 303 kts | 308° |
| 2026-04-27 20:10 | 55.79197 | 38.46759 | 19322 ft | 298 kts | 308° |
| 2026-04-27 20:11 | 55.80387 | 38.43810 | 19270 ft | 291 kts | 307° |
| 2026-04-27 20:11 | 55.81540 | 38.40904 | 19182 ft | 282 kts | 307° |
| 2026-04-27 20:11 | 55.82666 | 38.38056 | 18918 ft | 282 kts | 307° |
| 2026-04-27 20:11 | 55.83847 | 38.35220 | 18637 ft | 286 kts | 309° |
| 2026-04-27 20:12 | 55.85068 | 38.32417 | 18331 ft | 285 kts | 309° |
| 2026-04-27 20:12 | 55.85869 | 38.30595 | 18133 ft | 285 kts | 309° |
| 2026-04-27 20:12 | 55.87499 | 38.26882 | 17737 ft | 285 kts | 309° |
| 2026-04-27 20:12 | 55.88718 | 38.24090 | 17412 ft | 285 kts | 309° |
| 2026-04-27 20:13 | 55.89912 | 38.21342 | 17070 ft | 283 kts | 309° |
| 2026-04-27 20:13 | 55.91126 | 38.18541 | 16714 ft | 281 kts | 309° |
| 2026-04-27 20:13 | 55.92324 | 38.15769 | 16406 ft | 279 kts | 309° |
| 2026-04-27 20:13 | 55.93488 | 38.13072 | 16081 ft | 277 kts | 309° |
| 2026-04-27 20:14 | 55.94657 | 38.10359 | 15749 ft | 275 kts | 309° |
| 2026-04-27 20:14 | 55.95836 | 38.07668 | 15427 ft | 273 kts | 312° |
| 2026-04-27 20:14 | 55.97203 | 38.05364 | 15097 ft | 271 kts | 323° |
| 2026-04-27 20:14 | 55.98794 | 38.03537 | 14733 ft | 272 kts | 329° |
| 2026-04-27 20:15 | 56.00454 | 38.01919 | 14362 ft | 273 kts | 330° |
| 2026-04-27 20:15 | 56.02127 | 38.00317 | 13977 ft | 274 kts | 330° |
| 2026-04-27 20:15 | 56.03797 | 37.98689 | 13594 ft | 270 kts | 329° |
| 2026-04-27 20:15 | 56.05418 | 37.97072 | 13228 ft | 267 kts | 329° |
| 2026-04-27 20:16 | 56.07039 | 37.95426 | 12822 ft | 264 kts | 329° |
| 2026-04-27 20:16 | 56.08617 | 37.93805 | 12411 ft | 262 kts | 328° |
| 2026-04-27 20:16 | 56.10202 | 37.92162 | 11998 ft | 259 kts | 328° |
| 2026-04-27 20:16 | 56.11755 | 37.90544 | 11591 ft | 257 kts | 328° |
| 2026-04-27 20:17 | 56.13272 | 37.88956 | 11188 ft | 254 kts | 328° |
| 2026-04-27 20:17 | 56.14803 | 37.87351 | 10807 ft | 251 kts | 328° |
| 2026-04-27 20:17 | 56.16298 | 37.85780 | 10415 ft | 249 kts | 328° |
| 2026-04-27 20:17 | 56.17294 | 37.84732 | 10157 ft | 248 kts | 328° |
| 2026-04-27 20:18 | 56.19256 | 37.82664 | 9649 ft | 245 kts | 328° |
| 2026-04-27 20:18 | 56.20723 | 37.81116 | 9277 ft | 243 kts | 328° |
| 2026-04-27 20:18 | 56.22181 | 37.79576 | 8870 ft | 242 kts | 328° |
| 2026-04-27 20:18 | 56.23630 | 37.78043 | 8459 ft | 240 kts | 328° |
| 2026-04-27 20:19 | 56.25051 | 37.76540 | 8052 ft | 237 kts | 329° |
| 2026-04-27 20:19 | 56.26467 | 37.75040 | 7647 ft | 233 kts | 329° |
| 2026-04-27 20:19 | 56.27864 | 37.73558 | 7244 ft | 230 kts | 329° |
| 2026-04-27 20:19 | 56.29234 | 37.72104 | 6850 ft | 228 kts | 330° |
| 2026-04-27 20:20 | 56.30524 | 37.70513 | 6455 ft | 226 kts | 319° |
| 2026-04-27 20:20 | 56.31552 | 37.68413 | 6089 ft | 224 kts | 313° |
| 2026-04-27 20:20 | 56.32326 | 37.65955 | 5668 ft | 232 kts | 290° |
| 2026-04-27 20:20 | 56.32390 | 37.63028 | 5300 ft | 241 kts | 270° |
| 2026-04-27 20:21 | 56.31870 | 37.60203 | 5360 ft | 234 kts | 252° |
| 2026-04-27 20:21 | 56.30909 | 37.57801 | 5414 ft | 251 kts | 234° |
| 2026-04-27 20:21 | 56.29404 | 37.55910 | 5430 ft | 268 kts | 220° |